createdAt,value
2019-04-10T00:07:36.268Z,53.59
2019-04-10T00:08:36.507Z,49.79
2019-04-10T00:09:36.303Z,45.40
2019-04-10T00:10:36.270Z,51.09
2019-04-10T00:11:36.682Z,49.40
2019-04-10T00:12:36.212Z,54.50
2019-04-10T00:13:36.520Z,39.29
2019-04-10T00:14:36.682Z,40.90
2019-04-10T00:15:36.283Z,37.09
2019-04-10T00:16:36.218Z,47.70
2019-04-10T00:17:36.157Z,50.29
2019-04-10T00:18:36.147Z,50.20
2019-04-10T00:19:36.139Z,43.09
2019-04-10T00:20:36.490Z,37.70
2019-04-10T00:21:36.265Z,37.09
2019-04-10T00:22:36.103Z,46.79
2019-04-10T00:23:36.091Z,57.09
2019-04-10T00:24:36.081Z,46.09
2019-04-10T00:25:37.093Z,49.00
2019-04-10T00:26:36.061Z,43.70
2019-04-10T00:27:36.824Z,55.79
2019-04-10T00:28:36.040Z,44.00
2019-04-10T00:29:36.322Z,52.59
2019-04-10T00:30:36.018Z,55.50
2019-04-10T00:31:36.033Z,50.40
2019-04-10T00:32:36.257Z,44.40
2019-04-10T00:33:36.717Z,43.59
2019-04-10T00:34:35.978Z,38.40
2019-04-10T00:35:35.960Z,42.50
2019-04-10T00:36:35.955Z,45.90
2019-04-10T00:37:35.942Z,45.00
2019-04-10T00:38:35.927Z,46.70
2019-04-10T00:39:36.921Z,42.90
2019-04-10T00:40:35.913Z,50.20
2019-04-10T00:41:36.507Z,51.70
2019-04-10T00:42:36.941Z,50.09
2019-04-10T00:43:37.032Z,47.50
2019-04-10T00:44:35.872Z,38.09
2019-04-10T00:45:35.958Z,42.70
2019-04-10T00:46:35.845Z,41.90
2019-04-10T00:47:35.833Z,38.09
2019-04-10T00:48:36.259Z,42.09
2019-04-10T00:49:35.815Z,42.79
2019-04-10T00:50:36.928Z,36.29
2019-04-10T00:51:35.840Z,39.00
2019-04-10T00:52:36.555Z,40.40
2019-04-10T00:53:35.767Z,37.20
2019-04-10T00:54:35.762Z,44.29
2019-04-10T00:55:35.758Z,38.40
2019-04-10T00:56:36.623Z,33.59
2019-04-10T00:57:35.878Z,29.20
2019-04-10T00:58:35.717Z,37.29
2019-04-10T00:59:36.583Z,33.29
2019-04-10T01:00:36.771Z,37.20
2019-04-10T01:01:36.301Z,26.70
2019-04-10T01:02:36.583Z,30.50
2019-04-10T01:03:35.848Z,26.39
2019-04-10T01:04:36.179Z,32.59
2019-04-10T01:05:35.641Z,30.79
2019-04-10T01:06:35.779Z,33.70
2019-04-10T01:07:39.782Z,37.70
2019-04-10T01:09:01.382Z,34.79
2019-04-10T01:10:00.461Z,31.00
2019-04-10T01:11:01.051Z,31.00
2019-04-10T01:12:00.444Z,30.70
2019-04-10T01:13:00.694Z,34.20
2019-04-10T01:14:01.238Z,32.90
2019-04-10T01:15:00.411Z,30.50
2019-04-10T01:16:00.763Z,32.79
2019-04-10T01:17:00.384Z,21.89
2019-04-10T01:18:00.377Z,23.10
2019-04-10T01:19:00.368Z,23.89
2019-04-10T01:20:00.664Z,25.10
2019-04-10T01:21:00.343Z,27.29
2019-04-10T01:22:01.034Z,24.50
2019-04-10T01:23:00.517Z,21.79
2019-04-10T01:24:01.372Z,27.60
2019-04-10T01:25:00.316Z,22.50
2019-04-10T01:26:01.034Z,22.20
2019-04-10T01:27:01.232Z,24.20
2019-04-10T01:28:00.554Z,28.50
2019-04-10T01:29:00.907Z,29.89
2019-04-10T01:30:00.244Z,29.79
2019-04-10T01:31:00.239Z,26.60
2019-04-10T01:32:01.398Z,34.09
2019-04-10T01:33:00.686Z,41.09
2019-04-10T01:34:01.043Z,41.29
2019-04-10T01:35:00.294Z,40.09
2019-04-10T01:36:00.179Z,29.79
2019-04-10T01:37:00.604Z,38.20
2019-04-10T01:38:01.462Z,31.60
2019-04-10T01:39:00.150Z,35.79
2019-04-10T01:40:00.151Z,38.70
2019-04-10T01:41:00.133Z,32.09
2019-04-10T01:42:00.594Z,26.70
2019-04-10T01:43:09.262Z,26.70
2019-04-10T01:44:01.503Z,19.60
2019-04-10T01:45:00.742Z,17.79
2019-04-10T01:46:00.093Z,16.29
2019-04-10T01:47:00.060Z,19.79
2019-04-10T01:48:00.051Z,14.80
2019-04-10T01:49:00.035Z,15.10
2019-04-10T01:50:00.182Z,16.39
2019-04-10T01:51:01.108Z,14.39
2019-04-10T01:52:00.008Z,14.30
2019-04-10T01:52:59.996Z,20.29
2019-04-10T01:54:00.589Z,20.60
2019-04-10T01:54:59.975Z,22.89
2019-04-10T01:56:00.062Z,22.70
2019-04-10T01:56:59.951Z,25.89
2019-04-10T01:58:00.895Z,27.20
2019-04-10T01:58:59.930Z,28.20
2019-04-10T02:00:00.480Z,32.70
2019-04-10T02:00:59.909Z,44.40
2019-04-10T02:02:00.900Z,46.29
2019-04-10T02:02:59.889Z,47.59
2019-04-10T02:04:00.576Z,39.79
2019-04-10T02:05:00.645Z,26.39
2019-04-10T02:06:00.919Z,23.10
2019-04-10T02:07:00.011Z,22.10
2019-04-10T02:08:07.853Z,22.29
2019-04-10T02:09:25.645Z,29.00
2019-04-10T02:10:24.663Z,25.39
2019-04-10T02:11:24.616Z,16.20
2019-04-10T02:12:24.612Z,16.29
2019-04-10T02:13:25.464Z,16.00
2019-04-10T02:14:24.588Z,16.00
2019-04-10T02:15:24.571Z,14.89
2019-04-10T02:16:25.586Z,15.10
2019-04-10T02:17:24.552Z,16.10
2019-04-10T02:18:25.480Z,14.60
2019-04-10T02:19:24.627Z,11.30
2019-04-10T02:20:24.990Z,17.50
2019-04-10T02:21:25.472Z,12.69
2019-04-10T02:22:24.653Z,12.39
2019-04-10T02:23:24.483Z,10.69
2019-04-10T02:24:25.219Z,14.80
2019-04-10T02:25:24.614Z,13.69
2019-04-10T02:26:25.339Z,12.69
2019-04-10T02:27:24.586Z,14.60
2019-04-10T02:28:24.429Z,13.69
2019-04-10T02:29:24.421Z,13.69
2019-04-10T02:30:25.991Z,13.60
2019-04-10T02:31:26.361Z,12.30
2019-04-10T02:32:25.995Z,14.60
2019-04-10T02:33:25.447Z,17.39
2019-04-10T02:34:25.061Z,11.50
2019-04-10T02:35:24.761Z,15.69
2019-04-10T02:36:26.858Z,13.89
2019-04-10T02:37:25.031Z,13.60
2019-04-10T02:38:40.046Z,14.60
2019-04-10T02:39:32.428Z,13.30
2019-04-10T02:40:50.036Z,16.20
2019-04-10T02:41:49.959Z,14.80
2019-04-10T02:42:49.405Z,12.80
2019-04-10T02:43:49.194Z,12.50
2019-04-10T02:44:50.358Z,11.39
2019-04-10T02:45:49.444Z,10.30
2019-04-10T02:46:49.816Z,13.80
2019-04-10T02:47:50.805Z,10.39
2019-04-10T02:48:50.053Z,10.69
2019-04-10T02:49:49.322Z,13.10
2019-04-10T02:50:49.359Z,12.00
2019-04-10T02:51:49.842Z,14.00
2019-04-10T02:52:50.867Z,15.50
2019-04-10T02:53:50.190Z,11.69
2019-04-10T02:54:49.136Z,12.80
2019-04-10T02:55:49.358Z,11.39
2019-04-10T02:56:49.632Z,8.50
2019-04-10T02:57:49.832Z,7.50
2019-04-10T02:58:49.288Z,9.19
2019-04-10T02:59:48.984Z,3.59
2019-04-10T03:00:51.866Z,3.70
2019-04-10T03:01:49.728Z,2.29
2019-04-10T03:02:50.187Z,3.79
2019-04-10T03:03:50.247Z,4.19
2019-04-10T03:04:49.172Z,10.50
2019-04-10T03:05:48.990Z,22.00
2019-04-10T03:06:48.845Z,28.00
2019-04-10T03:07:50.092Z,28.10
2019-04-10T03:09:02.200Z,25.79
2019-04-10T03:10:24.420Z,27.89
2019-04-10T03:11:39.666Z,23.00
2019-04-10T03:12:38.755Z,27.50
2019-04-10T03:13:38.690Z,23.20
2019-04-10T03:14:39.238Z,22.10
2019-04-10T03:15:39.200Z,30.20
2019-04-10T03:16:39.373Z,24.60
2019-04-10T03:17:38.407Z,24.20
2019-04-10T03:18:39.090Z,13.69
2019-04-10T03:19:38.387Z,20.50
2019-04-10T03:20:38.536Z,20.10
2019-04-10T03:21:39.483Z,17.20
2019-04-10T03:22:38.504Z,17.39
2019-04-10T03:23:38.344Z,18.79
2019-04-10T03:24:38.328Z,17.39
2019-04-10T03:25:39.214Z,18.70
2019-04-10T03:26:39.483Z,16.10
2019-04-10T03:27:38.670Z,13.00
2019-04-10T03:28:38.903Z,16.39
2019-04-10T03:29:38.281Z,15.50
2019-04-10T03:30:39.503Z,15.10
2019-04-10T03:31:39.121Z,9.39
2019-04-10T03:32:41.716Z,16.39
2019-04-10T03:34:05.848Z,16.50
2019-04-10T03:35:03.095Z,14.60
2019-04-10T03:36:03.229Z,19.50
2019-04-10T03:37:04.285Z,11.60
2019-04-10T03:38:03.060Z,11.50
2019-04-10T03:39:06.171Z,15.19
2019-04-10T03:40:03.045Z,11.69
2019-04-10T03:41:04.015Z,15.00
2019-04-10T03:42:03.021Z,11.80
2019-04-10T03:43:03.547Z,14.19
2019-04-10T03:44:03.046Z,12.10
2019-04-10T03:45:03.326Z,18.39
2019-04-10T03:46:03.330Z,10.89
2019-04-10T03:47:02.997Z,14.39
2019-04-10T03:48:04.763Z,16.50
2019-04-10T03:49:03.236Z,13.10
2019-04-10T03:50:02.935Z,22.00
2019-04-10T03:51:03.922Z,20.39
2019-04-10T03:52:03.161Z,23.00
2019-04-10T03:53:02.902Z,22.70
2019-04-10T03:54:02.894Z,25.79
2019-04-10T03:55:03.032Z,25.29
2019-04-10T03:56:02.876Z,18.29
2019-04-10T03:57:02.862Z,28.00
2019-04-10T03:58:02.901Z,29.20
2019-04-10T03:59:02.839Z,19.89
2019-04-10T04:00:03.667Z,22.79
2019-04-10T04:01:02.889Z,21.79
2019-04-10T04:02:03.163Z,22.29
2019-04-10T04:03:02.796Z,16.70
2019-04-10T04:04:02.789Z,17.70
2019-04-10T04:05:02.780Z,22.29
2019-04-10T04:06:03.587Z,19.60
2019-04-10T04:07:02.816Z,20.39
2019-04-10T04:08:04.075Z,26.50
2019-04-10T04:09:07.768Z,20.29
2019-04-10T04:10:28.711Z,15.69
2019-04-10T04:11:27.528Z,13.80
2019-04-10T04:12:28.718Z,16.20
2019-04-10T04:13:27.898Z,12.80
2019-04-10T04:14:28.475Z,6.00
2019-04-10T04:15:28.185Z,4.30
2019-04-10T04:16:27.475Z,6.30
2019-04-10T04:17:28.330Z,5.50
2019-04-10T04:18:27.457Z,5.09
2019-04-10T04:19:28.250Z,5.59
2019-04-10T04:20:27.432Z,7.19
2019-04-10T04:21:27.880Z,6.09
2019-04-10T04:22:28.240Z,9.10
2019-04-10T04:23:27.760Z,5.59
2019-04-10T04:24:28.128Z,6.09
2019-04-10T04:25:27.377Z,4.80
2019-04-10T04:26:28.222Z,3.40
2019-04-10T04:27:27.357Z,2.70
2019-04-10T04:28:27.658Z,4.50
2019-04-10T04:29:27.387Z,4.09
2019-04-10T04:30:27.462Z,3.00
2019-04-10T04:31:27.316Z,2.90
2019-04-10T04:32:27.310Z,4.40
2019-04-10T04:33:27.662Z,3.59
2019-04-10T04:34:27.311Z,3.29
2019-04-10T04:35:27.748Z,2.79
2019-04-10T04:36:27.261Z,3.79
2019-04-10T04:37:28.042Z,3.79
2019-04-10T04:38:27.684Z,6.19
2019-04-10T04:39:28.937Z,3.09
2019-04-10T04:40:27.893Z,2.40
2019-04-10T04:41:27.413Z,2.79
2019-04-10T04:42:27.198Z,4.09
2019-04-10T04:43:27.186Z,3.29
2019-04-10T04:44:27.174Z,5.50
2019-04-10T04:45:27.816Z,5.59
2019-04-10T04:46:28.068Z,2.70
2019-04-10T04:47:27.197Z,4.00
2019-04-10T04:48:27.135Z,2.00
2019-04-10T04:49:28.312Z,5.40
2019-04-10T04:50:27.120Z,3.70
2019-04-10T04:51:27.323Z,8.60
2019-04-10T04:52:27.907Z,2.40
2019-04-10T04:53:27.972Z,1.79
2019-04-10T04:54:27.069Z,4.00
2019-04-10T04:55:27.053Z,6.30
2019-04-10T04:56:28.132Z,3.90
2019-04-10T04:57:27.036Z,2.70
2019-04-10T04:58:27.029Z,3.90
2019-04-10T04:59:27.885Z,3.40
2019-04-10T05:00:27.815Z,5.19
2019-04-10T05:01:27.550Z,2.50
2019-04-10T05:02:26.986Z,4.09
2019-04-10T05:03:27.068Z,1.90
2019-04-10T05:04:27.102Z,2.20
2019-04-10T05:05:27.156Z,2.70
2019-04-10T05:06:26.940Z,4.50
2019-04-10T05:07:27.105Z,3.29
2019-04-10T05:08:28.051Z,3.00
2019-04-10T05:09:33.329Z,3.00
2019-04-10T05:10:51.862Z,4.00
2019-04-10T05:11:51.700Z,3.70
2019-04-10T05:12:51.691Z,4.09
2019-04-10T05:13:51.681Z,3.59
2019-04-10T05:14:51.769Z,2.59
2019-04-10T05:15:51.658Z,3.09
2019-04-10T05:16:52.038Z,4.09
2019-04-10T05:17:51.641Z,5.69
2019-04-10T05:18:52.030Z,7.69
2019-04-10T05:19:52.312Z,7.69
2019-04-10T05:20:52.616Z,5.00
2019-04-10T05:21:51.948Z,5.59
2019-04-10T05:22:52.471Z,5.90
2019-04-10T05:23:51.574Z,4.09
2019-04-10T05:24:52.325Z,3.50
2019-04-10T05:25:51.939Z,2.09
2019-04-10T05:26:51.540Z,2.29
2019-04-10T05:27:51.530Z,2.00
2019-04-10T05:28:52.655Z,4.69
2019-04-10T05:29:51.510Z,3.40
2019-04-10T05:30:52.360Z,3.20
2019-04-10T05:31:51.485Z,7.19
2019-04-10T05:32:51.505Z,12.30
2019-04-10T05:33:51.467Z,8.80
2019-04-10T05:34:52.431Z,5.90
2019-04-10T05:35:51.446Z,3.20
2019-04-10T05:36:51.435Z,4.19
2019-04-10T05:37:51.983Z,2.50
2019-04-10T05:38:52.492Z,5.00
2019-04-10T05:39:52.607Z,2.90
2019-04-10T05:40:51.441Z,4.69
2019-04-10T05:41:51.383Z,3.59
2019-04-10T05:42:51.372Z,2.90
2019-04-10T05:43:51.361Z,3.00
2019-04-10T05:44:52.295Z,2.90
2019-04-10T05:45:51.337Z,3.00
2019-04-10T05:46:52.621Z,3.50
2019-04-10T05:47:51.320Z,4.50
2019-04-10T05:48:52.458Z,5.80
2019-04-10T05:49:51.313Z,4.80
2019-04-10T05:50:57.866Z,3.70
2019-04-10T05:51:53.454Z,3.50
2019-04-10T05:52:51.815Z,5.30
2019-04-10T05:53:53.695Z,5.69
2019-04-10T05:54:51.614Z,4.59
2019-04-10T05:55:51.666Z,4.90
2019-04-10T05:56:51.226Z,5.30
2019-04-10T05:57:51.261Z,4.69
2019-04-10T05:58:51.203Z,5.40
2019-04-10T05:59:52.257Z,5.59
2019-04-10T06:00:51.480Z,5.09
2019-04-10T06:01:51.165Z,4.90
2019-04-10T06:02:52.190Z,4.90
2019-04-10T06:03:51.145Z,4.30
2019-04-10T06:04:51.797Z,4.80
2019-04-10T06:05:51.124Z,4.40
2019-04-10T06:06:51.113Z,5.19
2019-04-10T06:07:51.665Z,3.90
2019-04-10T06:08:51.201Z,3.50
2019-04-10T06:09:56.821Z,4.09
2019-04-10T06:11:17.039Z,7.30
2019-04-10T06:12:16.051Z,6.50
2019-04-10T06:13:15.857Z,5.00
2019-04-10T06:14:15.914Z,3.79
2019-04-10T06:15:16.912Z,3.79
2019-04-10T06:16:15.828Z,4.09
2019-04-10T06:17:16.436Z,3.59
2019-04-10T06:18:15.801Z,3.70
2019-04-10T06:19:15.914Z,3.79
2019-04-10T06:20:15.956Z,3.00
2019-04-10T06:21:15.781Z,3.59
2019-04-10T06:22:16.697Z,4.00
2019-04-10T06:23:15.753Z,4.69
2019-04-10T06:24:16.227Z,4.00
2019-04-10T06:25:16.446Z,3.79
2019-04-10T06:26:16.841Z,4.59
2019-04-10T06:27:16.392Z,3.90
2019-04-10T06:28:15.699Z,4.90
2019-04-10T06:29:16.966Z,5.19
2019-04-10T06:30:15.776Z,3.79
2019-04-10T06:31:16.588Z,4.09
2019-04-10T06:32:15.654Z,5.00
2019-04-10T06:33:15.851Z,3.70
2019-04-10T06:34:17.570Z,4.80
2019-04-10T06:35:15.708Z,4.50
2019-04-10T06:36:15.761Z,3.79
2019-04-10T06:37:15.775Z,3.20
2019-04-10T06:38:16.793Z,4.09
2019-04-10T06:39:16.451Z,5.30
2019-04-10T06:40:19.745Z,3.90
2019-04-10T06:41:41.094Z,4.69
2019-04-10T06:42:49.204Z,4.19
2019-04-10T06:44:05.777Z,5.19
2019-04-10T06:45:05.738Z,5.50
2019-04-10T06:46:06.308Z,3.79
2019-04-10T06:47:06.329Z,3.29
2019-04-10T06:48:05.167Z,4.30
2019-04-10T06:49:05.633Z,3.29
2019-04-10T06:50:05.147Z,4.19
2019-04-10T06:51:06.122Z,3.50
2019-04-10T06:52:06.074Z,4.69
2019-04-10T06:53:06.276Z,3.79
2019-04-10T06:54:09.374Z,4.09
2019-04-10T06:55:06.190Z,5.00
2019-04-10T06:56:05.080Z,4.09
2019-04-10T06:57:06.241Z,4.09
2019-04-10T06:58:05.063Z,4.80
2019-04-10T06:59:05.171Z,3.79
2019-04-10T07:00:05.036Z,3.40
2019-04-10T07:01:06.212Z,3.79
2019-04-10T07:02:16.640Z,4.80
2019-04-10T07:03:06.515Z,4.69
2019-04-10T07:04:07.627Z,6.19
2019-04-10T07:05:08.553Z,3.50
2019-04-10T07:06:12.471Z,4.19
2019-04-10T07:07:42.333Z,3.70
2019-04-10T07:08:55.348Z,5.80
2019-04-10T07:09:56.203Z,5.69
2019-04-10T07:11:03.330Z,3.79
2019-04-10T07:12:20.493Z,4.30
2019-04-10T07:13:19.720Z,4.09
2019-04-10T07:14:20.403Z,4.09
2019-04-10T07:15:22.722Z,4.90
2019-04-10T07:16:20.065Z,3.40
2019-04-10T07:17:19.956Z,3.40
2019-04-10T07:18:20.652Z,4.19
2019-04-10T07:19:19.826Z,4.50
2019-04-10T07:20:20.846Z,4.40
2019-04-10T07:21:20.111Z,4.30
2019-04-10T07:22:19.345Z,5.80
2019-04-10T07:23:25.858Z,3.90
2019-04-10T07:24:44.132Z,6.19
2019-04-10T07:25:45.797Z,6.00
2019-04-10T07:26:46.602Z,4.19
2019-04-10T07:27:44.303Z,3.40
2019-04-10T07:28:45.959Z,4.19
2019-04-10T07:29:44.613Z,4.00
2019-04-10T07:30:43.966Z,3.79
2019-04-10T07:31:44.658Z,3.79
2019-04-10T07:32:47.520Z,4.00
2019-04-10T07:33:45.152Z,4.50
2019-04-10T07:34:44.517Z,4.90
2019-04-10T07:35:44.345Z,3.29
2019-04-10T07:36:45.536Z,5.30
2019-04-10T07:37:44.512Z,3.70
2019-04-10T07:38:43.884Z,4.09
2019-04-10T07:39:44.836Z,3.70
2019-04-10T07:40:44.928Z,3.70
2019-04-10T07:41:43.852Z,2.90
2019-04-10T07:42:43.845Z,5.30
2019-04-10T07:43:44.779Z,4.00
2019-04-10T07:44:43.823Z,5.30
2019-04-10T07:45:43.855Z,4.69
2019-04-10T07:46:43.799Z,3.79
2019-04-10T07:47:44.075Z,4.50
2019-04-10T07:48:43.780Z,4.59
2019-04-10T07:49:44.071Z,6.50
2019-04-10T07:50:45.575Z,3.40
2019-04-10T07:51:44.631Z,4.69
2019-04-10T07:52:43.779Z,4.90
2019-04-10T07:53:43.724Z,3.20
2019-04-10T07:54:44.933Z,4.69
2019-04-10T07:55:57.472Z,7.40
2019-04-10T07:57:08.559Z,5.90
2019-04-10T07:58:08.552Z,5.50
2019-04-10T07:59:08.814Z,5.00
2019-04-10T08:00:09.001Z,4.69
2019-04-10T08:01:08.517Z,4.00
2019-04-10T08:02:10.108Z,4.80
2019-04-10T08:03:08.506Z,4.90
2019-04-10T08:04:08.490Z,3.40
2019-04-10T08:05:08.479Z,4.19
2019-04-10T08:06:09.037Z,5.90
2019-04-10T08:07:09.488Z,5.30
2019-04-10T08:08:08.743Z,6.09
2019-04-10T08:09:08.468Z,4.59
2019-04-10T08:10:08.423Z,4.19
2019-04-10T08:11:09.141Z,3.40
2019-04-10T08:12:09.272Z,3.90
2019-04-10T08:13:08.634Z,3.59
2019-04-10T08:14:08.831Z,4.90
2019-04-10T08:15:09.140Z,5.30
2019-04-10T08:16:08.360Z,5.69
2019-04-10T08:17:08.348Z,4.59
2019-04-10T08:18:08.343Z,4.09
2019-04-10T08:19:08.358Z,5.50
2019-04-10T08:20:08.375Z,4.90
2019-04-10T08:21:08.312Z,4.19
2019-04-10T08:22:08.367Z,3.90
2019-04-10T08:23:09.002Z,3.59
2019-04-10T08:24:09.421Z,3.40
2019-04-10T08:25:08.930Z,4.69
2019-04-10T08:26:08.308Z,4.80
2019-04-10T08:27:10.232Z,5.40
2019-04-10T08:28:09.211Z,4.40
2019-04-10T08:29:08.227Z,4.09
2019-04-10T08:30:10.776Z,3.29
2019-04-10T08:31:08.655Z,5.19
2019-04-10T08:32:08.199Z,3.50
2019-04-10T08:33:08.187Z,4.09
2019-04-10T08:34:08.875Z,5.50
2019-04-10T08:35:09.077Z,3.09
2019-04-10T08:36:08.153Z,3.09
2019-04-10T08:37:08.250Z,4.90
2019-04-10T08:38:08.133Z,2.90
2019-04-10T08:39:08.120Z,3.90
2019-04-10T08:40:09.481Z,3.40
2019-04-10T08:41:08.673Z,4.90
2019-04-10T08:42:08.584Z,4.50
2019-04-10T08:43:08.386Z,4.90
2019-04-10T08:44:08.073Z,3.50
2019-04-10T08:45:09.095Z,3.70
2019-04-10T08:46:08.738Z,3.29
2019-04-10T08:47:08.941Z,3.70
2019-04-10T08:48:08.084Z,3.20
2019-04-10T08:49:08.167Z,6.00
2019-04-10T08:50:08.006Z,4.19
2019-04-10T08:51:08.672Z,4.69
2019-04-10T08:52:08.296Z,6.09
2019-04-10T08:53:07.971Z,4.69
2019-04-10T08:54:08.005Z,3.29
2019-04-10T08:55:08.038Z,3.00
2019-04-10T08:56:07.943Z,6.40
2019-04-10T08:57:07.935Z,3.59
2019-04-10T08:58:08.339Z,4.50
2019-04-10T08:59:07.915Z,3.09
2019-04-10T09:00:08.214Z,2.79
2019-04-10T09:01:09.081Z,4.40
2019-04-10T09:02:07.883Z,3.90
2019-04-10T09:03:08.790Z,5.19
2019-04-10T09:04:07.906Z,4.19
2019-04-10T09:05:09.072Z,4.50
2019-04-10T09:06:07.841Z,3.29
2019-04-10T09:07:08.273Z,3.40
2019-04-10T09:08:08.593Z,3.79
2019-04-10T09:09:07.810Z,3.09
2019-04-10T09:10:07.807Z,4.19
2019-04-10T09:11:07.794Z,2.90
2019-04-10T09:13:08.369Z,3.50
2019-04-10T09:14:08.645Z,4.19
2019-04-10T09:15:07.907Z,2.50
2019-04-10T09:16:07.733Z,3.59
2019-04-10T09:17:07.721Z,3.59
2019-04-10T09:18:08.550Z,5.00
2019-04-10T09:19:07.703Z,3.90
2019-04-10T09:20:08.774Z,4.69
2019-04-10T09:21:07.679Z,4.40
2019-04-10T09:22:07.919Z,4.50
2019-04-10T09:23:18.774Z,4.30
2019-04-10T09:24:32.615Z,7.30
2019-04-10T09:25:33.394Z,6.80
2019-04-10T09:26:32.800Z,5.59
2019-04-10T09:27:33.667Z,4.69
2019-04-10T09:28:32.806Z,4.90
2019-04-10T09:29:32.664Z,4.09
2019-04-10T09:30:33.848Z,3.70
2019-04-10T09:31:33.510Z,4.50
2019-04-10T09:32:32.702Z,3.59
2019-04-10T09:33:32.566Z,5.30
2019-04-10T09:34:32.512Z,6.50
2019-04-10T09:35:32.883Z,3.70
2019-04-10T09:36:33.310Z,5.69
2019-04-10T09:37:32.619Z,4.69
2019-04-10T09:38:32.470Z,4.00
2019-04-10T09:39:32.457Z,3.50
2019-04-10T09:40:32.442Z,6.80
2019-04-10T09:41:32.492Z,4.90
2019-04-10T09:42:33.263Z,5.59
2019-04-10T09:43:32.420Z,4.40
2019-04-10T09:44:32.404Z,5.90
2019-04-10T09:45:32.395Z,6.00
2019-04-10T09:46:33.219Z,4.30
2019-04-10T09:47:32.569Z,4.19
2019-04-10T09:48:32.360Z,5.50
2019-04-10T09:49:38.948Z,6.19
2019-04-10T09:50:33.440Z,4.09
2019-04-10T09:51:32.332Z,4.30
2019-04-10T09:52:32.375Z,3.79
2019-04-10T09:53:32.970Z,4.40
2019-04-10T09:54:32.969Z,4.19
2019-04-10T09:55:32.295Z,4.00
2019-04-10T09:56:32.278Z,4.50
2019-04-10T09:57:32.288Z,4.90
2019-04-10T09:58:32.308Z,5.59
2019-04-10T09:59:36.429Z,6.30
2019-04-10T10:00:57.054Z,5.80
2019-04-10T10:01:57.046Z,6.90
2019-04-10T10:02:57.206Z,3.40
2019-04-10T10:03:57.180Z,3.70
2019-04-10T10:04:57.818Z,4.09
2019-04-10T10:05:57.171Z,4.80
2019-04-10T10:06:56.991Z,4.50
2019-04-10T10:07:57.973Z,3.09
2019-04-10T10:08:56.967Z,4.80
2019-04-10T10:09:59.704Z,5.30
2019-04-10T10:10:57.635Z,4.00
2019-04-10T10:11:56.937Z,5.80
2019-04-10T10:12:56.980Z,3.09
2019-04-10T10:13:56.914Z,4.00
2019-04-10T10:14:56.999Z,3.70
2019-04-10T10:15:56.953Z,5.30
2019-04-10T10:16:57.982Z,5.59
2019-04-10T10:17:57.142Z,6.19
2019-04-10T10:18:57.415Z,5.00
2019-04-10T10:19:57.481Z,4.00
2019-04-10T10:20:56.845Z,5.00
2019-04-10T10:21:59.066Z,4.40
2019-04-10T10:22:57.769Z,3.90
2019-04-10T10:23:56.816Z,3.29
2019-04-10T10:24:57.805Z,4.69
2019-04-10T10:25:56.794Z,6.80
2019-04-10T10:26:57.739Z,2.40
2019-04-10T10:27:56.867Z,4.09
2019-04-10T10:28:56.758Z,4.40
2019-04-10T10:29:57.845Z,4.80
2019-04-10T10:30:57.816Z,3.50
2019-04-10T10:31:56.983Z,2.90
2019-04-10T10:32:57.257Z,3.40
2019-04-10T10:33:56.812Z,4.90
2019-04-10T10:34:56.694Z,3.70
2019-04-10T10:35:57.668Z,5.40
2019-04-10T10:36:56.673Z,3.40
2019-04-10T10:37:56.905Z,3.59
2019-04-10T10:39:05.208Z,4.09
2019-04-10T10:40:21.610Z,5.90
2019-04-10T10:41:22.253Z,5.59
2019-04-10T10:42:21.583Z,3.29
2019-04-10T10:43:22.563Z,3.90
2019-04-10T10:44:21.868Z,2.90
2019-04-10T10:45:22.773Z,3.59
2019-04-10T10:46:21.544Z,2.70
2019-04-10T10:47:22.267Z,3.70
2019-04-10T10:48:21.944Z,3.00
2019-04-10T10:49:21.506Z,3.50
2019-04-10T10:50:22.242Z,2.50
2019-04-10T10:51:22.567Z,4.19
2019-04-10T10:52:21.592Z,4.69
2019-04-10T10:53:21.934Z,2.50
2019-04-10T10:54:21.455Z,2.79
2019-04-10T10:55:21.447Z,6.30
2019-04-10T10:56:22.398Z,5.30
2019-04-10T10:57:22.688Z,4.69
2019-04-10T10:58:21.829Z,5.30
2019-04-10T10:59:21.811Z,3.90
2019-04-10T11:00:21.390Z,4.19
2019-04-10T11:01:22.136Z,3.79
2019-04-10T11:02:21.464Z,5.09
2019-04-10T11:03:22.438Z,5.00
2019-04-10T11:04:21.352Z,3.50
2019-04-10T11:05:21.344Z,3.79
2019-04-10T11:06:22.585Z,4.50
2019-04-10T11:07:22.663Z,6.40
2019-04-10T11:08:22.086Z,3.50
2019-04-10T11:09:21.291Z,5.40
2019-04-10T11:10:24.434Z,4.30
2019-04-10T11:11:22.629Z,3.29
2019-04-10T11:12:21.972Z,3.09
2019-04-10T11:13:22.456Z,4.90
2019-04-10T11:14:21.535Z,4.00
2019-04-10T11:15:21.229Z,5.09
2019-04-10T11:16:21.220Z,8.00
2019-04-10T11:17:22.253Z,4.59
2019-04-10T11:18:22.236Z,6.19
2019-04-10T11:19:21.190Z,4.90
2019-04-10T11:20:21.539Z,4.40
2019-04-10T11:21:21.172Z,6.69
2019-04-10T11:22:22.995Z,4.50
2019-04-10T11:23:22.185Z,5.40
2019-04-10T11:24:21.139Z,6.19
2019-04-10T11:25:22.126Z,3.59
2019-04-10T11:26:24.016Z,3.70
2019-04-10T11:27:21.101Z,2.50
2019-04-10T11:28:22.710Z,3.50
2019-04-10T11:29:22.032Z,2.50
2019-04-10T11:30:22.185Z,3.29
2019-04-10T11:31:21.185Z,4.19
2019-04-10T11:32:22.121Z,2.50
2019-04-10T11:33:22.302Z,3.90
2019-04-10T11:34:22.581Z,4.19
2019-04-10T11:35:21.803Z,4.90
2019-04-10T11:36:21.010Z,2.40
2019-04-10T11:37:32.136Z,2.00
2019-04-10T11:38:46.591Z,3.29
2019-04-10T11:39:48.124Z,4.30
2019-04-10T11:40:47.258Z,2.40
2019-04-10T11:41:48.749Z,2.90
2019-04-10T11:42:46.994Z,4.59
2019-04-10T11:43:46.625Z,4.30
2019-04-10T11:44:47.302Z,3.70
2019-04-10T11:45:52.028Z,2.00
2019-04-10T11:47:10.681Z,4.40
2019-04-10T11:48:12.697Z,4.50
2019-04-10T11:49:13.951Z,4.30
2019-04-10T11:50:14.070Z,3.90
2019-04-10T11:51:36.721Z,4.40
2019-04-10T11:52:40.202Z,4.09
2019-04-10T11:54:02.210Z,2.79
2019-04-10T11:56:05.273Z,3.09
2019-04-10T11:57:04.240Z,3.90
2019-04-10T11:58:03.016Z,3.00
2019-04-10T11:59:01.650Z,2.40
2019-04-10T12:00:02.517Z,7.90
2019-04-10T12:01:02.513Z,4.00
2019-04-10T12:02:03.472Z,2.90
2019-04-10T12:03:26.993Z,3.09
2019-04-10T12:04:25.599Z,2.59
2019-04-10T12:05:25.864Z,3.20
2019-04-10T12:06:25.517Z,5.80
2019-04-10T12:07:55.117Z,5.00
2019-04-10T12:08:50.103Z,3.59
2019-04-10T12:10:49.504Z,2.79
2019-04-10T12:11:49.696Z,4.80
2019-04-10T12:12:49.957Z,4.19
2019-04-10T12:13:50.477Z,4.50
2019-04-10T12:14:50.079Z,2.40
2019-04-10T12:15:50.460Z,2.79
2019-04-10T12:16:49.652Z,3.00
2019-04-10T12:17:49.837Z,2.59
2019-04-10T12:18:49.628Z,5.40
2019-04-10T12:19:49.619Z,2.79
2019-04-10T12:20:49.614Z,3.40
2019-04-10T12:21:50.373Z,3.79
2019-04-10T12:22:49.582Z,4.30
2019-04-10T12:23:50.230Z,5.50
2019-04-10T12:24:50.076Z,3.70
2019-04-10T12:25:49.555Z,4.69
2019-04-10T12:26:49.885Z,3.59
2019-04-10T12:27:49.583Z,2.20
2019-04-10T12:28:50.027Z,1.90
2019-04-10T12:29:49.514Z,3.40
2019-04-10T12:30:49.499Z,3.20
2019-04-10T12:31:50.306Z,3.90
2019-04-10T12:32:49.501Z,3.20
2019-04-10T12:33:50.518Z,2.90
2019-04-10T12:34:49.463Z,2.50
2019-04-10T12:35:49.977Z,3.79
2019-04-10T12:36:49.442Z,2.40
2019-04-10T12:37:57.841Z,2.59
2019-04-10T12:39:14.334Z,2.79
2019-04-10T12:40:14.335Z,2.50
2019-04-10T12:41:15.118Z,3.00
2019-04-10T12:42:14.299Z,5.09
2019-04-10T12:43:14.293Z,5.30
2019-04-10T12:44:14.379Z,4.80
2019-04-10T12:45:14.273Z,18.10
2019-04-10T12:46:14.947Z,26.39
2019-04-10T12:47:15.398Z,32.29
2019-04-10T12:48:14.548Z,18.20
2019-04-10T12:49:15.072Z,29.70
2019-04-10T12:50:14.519Z,23.70
2019-04-10T12:51:14.211Z,31.79
2019-04-10T12:52:14.375Z,26.10
2019-04-10T12:53:14.190Z,32.90
2019-04-10T12:54:14.247Z,44.09
2019-04-10T12:55:14.512Z,40.40
2019-04-10T12:56:14.262Z,33.79
2019-04-10T12:57:14.810Z,34.90
2019-04-10T12:58:17.547Z,36.09
2019-04-10T12:59:15.196Z,32.09
2019-04-10T13:00:14.115Z,31.89
2019-04-10T13:01:14.293Z,36.29
2019-04-10T13:02:14.727Z,34.40
2019-04-10T13:03:14.629Z,37.00
2019-04-10T13:04:14.073Z,37.59
2019-04-10T13:05:14.065Z,44.09
2019-04-10T13:06:14.050Z,42.00
2019-04-10T13:07:14.037Z,49.90
2019-04-10T13:08:21.147Z,48.90
2019-04-10T13:09:39.936Z,55.40
2019-04-10T13:10:39.850Z,59.90
2019-04-10T13:11:38.803Z,66.40
2019-04-10T13:12:39.723Z,50.90
2019-04-10T13:13:38.907Z,55.50
2019-04-10T13:14:39.742Z,52.79
2019-04-10T13:15:39.313Z,50.40
2019-04-10T13:16:38.757Z,56.00
2019-04-10T13:17:38.741Z,43.29
2019-04-10T13:18:38.739Z,44.09
2019-04-10T13:19:38.779Z,47.59
2019-04-10T13:20:39.859Z,58.40
2019-04-10T13:21:38.910Z,50.59
2019-04-10T13:22:38.702Z,59.50
2019-04-10T13:23:39.679Z,56.00
2019-04-10T13:24:38.667Z,58.79
2019-04-10T13:25:38.807Z,49.50
2019-04-10T13:26:39.590Z,44.50
2019-04-10T13:27:39.030Z,55.40
2019-04-10T13:28:39.368Z,58.09
2019-04-10T13:29:38.624Z,59.20
2019-04-10T13:30:46.925Z,49.40